Time;durP1;ratioP1;P1;durP2;ratioP2;P2;SDS_P1;SDS_P2;PMS_P1;PMS_P2;Temp;Humidity;BMP_temperature;BMP_pressure;BME280_temperature;BME280_humidity;BME280_pressure;Samples;Min_cycle;Max_cycle;Signal;HPM_P1;HPM_P2
2024/01/11 00:00:15;;;;;;;11.77;3.92;;;-1.20;99.90;;;;;;6298484;28;20041;-79
2024/01/11 00:03:18;;;;;;;14.15;4.43;;;-1.20;99.90;;;;;;6274091;28;20059;-79
2024/01/11 00:06:19;;;;;;;13.18;4.47;;;-1.30;99.90;;;;;;6295721;28;20428;-79
2024/01/11 00:09:21;;;;;;;15.73;5.03;;;-1.30;99.90;;;;;;6301552;28;20052;-80
2024/01/11 00:12:23;;;;;;;12.10;4.65;;;-1.30;99.90;;;;;;6299213;28;20154;-79
2024/01/11 00:15:24;;;;;;;15.60;4.90;;;-1.40;99.90;;;;;;6272125;28;20056;-79
2024/01/11 00:18:26;;;;;;;16.15;4.70;;;-1.50;99.90;;;;;;6297812;28;20063;-79
2024/01/11 00:21:28;;;;;;;16.95;4.53;;;-1.50;99.90;;;;;;6316217;28;20058;-79
2024/01/11 00:24:30;;;;;;;15.95;4.93;;;-1.50;99.90;;;;;;6316833;28;20051;-79
2024/01/11 00:27:39;;;;;;;18.67;5.72;;;-1.50;99.90;;;;;;6287469;28;20048;-79
2024/01/11 00:30:41;;;;;;;15.35;4.90;;;-1.60;99.90;;;;;;6293572;28;20078;-79
2024/01/11 00:33:42;;;;;;;16.92;4.80;;;-1.60;99.90;;;;;;6317197;28;20779;-79
2024/01/11 00:36:44;;;;;;;13.27;4.60;;;-1.60;99.90;;;;;;6293300;28;20052;-79
2024/01/11 00:39:46;;;;;;;21.67;5.50;;;-1.60;99.90;;;;;;6305955;28;20052;-80
2024/01/11 00:42:48;;;;;;;13.60;5.05;;;-1.60;99.90;;;;;;6299205;28;20048;-79
2024/01/11 00:45:49;;;;;;;16.25;5.30;;;-1.70;99.90;;;;;;6267018;28;20424;-79
2024/01/11 00:48:51;;;;;;;15.55;5.30;;;-1.70;99.90;;;;;;6314215;28;20573;-79
2024/01/11 00:51:57;;;;;;;22.20;5.40;;;-1.70;99.90;;;;;;6268241;28;20060;-80
2024/01/11 00:54:58;;;;;;;18.15;5.35;;;-1.80;99.90;;;;;;6316896;28;20052;-79
2024/01/11 00:58:00;;;;;;;15.68;5.22;;;-1.80;99.90;;;;;;6275659;28;20515;-78
2024/01/11 01:01:01;;;;;;;15.15;5.07;;;-1.80;99.90;;;;;;6290566;28;20507;-79
2024/01/11 01:04:04;;;;;;;15.90;5.50;;;-1.80;99.90;;;;;;6267761;28;20084;-80
2024/01/11 01:07:05;;;;;;;20.08;5.80;;;-1.90;99.90;;;;;;6316278;28;20478;-80
2024/01/11 01:10:08;;;;;;;15.00;5.75;;;-1.90;99.90;;;;;;6292807;28;20053;-79
2024/01/11 01:13:09;;;;;;;21.95;6.03;;;-1.90;99.90;;;;;;6297044;28;20476;-79
2024/01/11 01:16:11;;;;;;;22.77;5.90;;;-1.90;99.90;;;;;;6269726;28;20056;-79
2024/01/11 01:19:12;;;;;;;18.98;5.20;;;-1.90;99.90;;;;;;6272124;28;20094;-80
2024/01/11 01:22:14;;;;;;;13.65;5.93;;;-1.90;99.90;;;;;;6308955;28;20052;-80
2024/01/11 01:25:16;;;;;;;18.13;6.13;;;-2.00;99.90;;;;;;6293018;28;20416;-79
2024/01/11 01:28:17;;;;;;;20.17;6.40;;;-2.00;99.90;;;;;;6294234;28;20642;-80
2024/01/11 01:31:19;;;;;;;18.77;6.35;;;-2.00;99.90;;;;;;6291313;28;20059;-79
2024/01/11 01:34:20;;;;;;;19.63;6.10;;;-2.00;99.90;;;;;;6293990;28;20090;-79
2024/01/11 01:37:22;;;;;;;15.93;5.38;;;-2.00;99.90;;;;;;6272049;28;20048;-79
2024/01/11 01:40:24;;;;;;;14.73;5.25;;;-2.00;99.90;;;;;;6278022;28;20059;-79
2024/01/11 01:43:25;;;;;;;14.30;5.63;;;-2.00;99.90;;;;;;6316791;28;20138;-79
2024/01/11 01:46:27;;;;;;;15.18;5.97;;;-2.00;99.90;;;;;;6274728;28;20064;-79
2024/01/11 01:49:28;;;;;;;22.35;6.28;;;-2.00;99.90;;;;;;6314621;28;20094;-79
2024/01/11 01:52:30;;;;;;;21.67;6.65;;;-2.10;99.90;;;;;;6321178;28;20048;-79
2024/01/11 01:55:32;;;;;;;18.30;6.10;;;-2.10;99.90;;;;;;6296689;28;20051;-78
2024/01/11 01:58:33;;;;;;;15.13;5.80;;;-2.10;99.90;;;;;;6319148;28;20074;-78
2024/01/11 02:01:35;;;;;;;22.30;6.60;;;-2.10;99.90;;;;;;6293301;28;20056;-79
2024/01/11 02:04:36;;;;;;;16.70;6.40;;;-2.10;99.90;;;;;;6320828;28;20114;-80
2024/01/11 02:07:38;;;;;;;17.15;6.60;;;-2.10;99.90;;;;;;6296593;28;20048;-79
2024/01/11 02:10:40;;;;;;;20.30;6.45;;;-2.00;99.90;;;;;;6306198;28;20075;-80
2024/01/11 02:13:41;;;;;;;19.17;6.15;;;-2.00;99.90;;;;;;6306928;28;20059;-79
2024/01/11 02:16:43;;;;;;;21.50;6.82;;;-1.90;99.90;;;;;;6296297;28;20056;-79
2024/01/11 02:19:44;;;;;;;22.20;7.28;;;-1.90;99.90;;;;;;6313215;28;20126;-79
2024/01/11 02:22:46;;;;;;;20.23;6.93;;;-1.90;99.90;;;;;;6320553;28;20052;-79
2024/01/11 02:25:48;;;;;;;21.60;7.35;;;-1.90;99.90;;;;;;6277846;28;20044;-79
2024/01/11 02:28:49;;;;;;;25.63;7.40;;;-1.90;99.90;;;;;;6310514;28;20052;-79
2024/01/11 02:31:51;;;;;;;19.52;6.68;;;-1.90;99.90;;;;;;6292403;28;20052;-79
2024/01/11 02:34:53;;;;;;;19.35;6.40;;;-1.90;99.90;;;;;;6299433;28;20059;-79
2024/01/11 02:37:54;;;;;;;16.70;6.90;;;-1.90;99.90;;;;;;6301683;28;20048;-79
2024/01/11 02:40:56;;;;;;;16.05;6.85;;;-1.90;99.90;;;;;;6295847;28;20514;-78
2024/01/11 02:43:58;;;;;;;25.52;7.82;;;-1.90;99.90;;;;;;6306898;28;20422;-79
2024/01/11 02:46:59;;;;;;;21.98;7.65;;;-1.90;99.90;;;;;;6273749;28;20060;-78
2024/01/11 02:50:01;;;;;;;21.20;6.60;;;-1.90;99.90;;;;;;6319899;28;20051;-79
2024/01/11 02:53:03;;;;;;;25.20;7.25;;;-1.90;99.90;;;;;;6295733;28;20411;-79
2024/01/11 02:56:04;;;;;;;24.55;7.05;;;-1.90;99.90;;;;;;6297327;28;20141;-79
2024/01/11 02:59:06;;;;;;;23.50;6.78;;;-1.80;99.90;;;;;;6298295;28;20147;-79
2024/01/11 03:02:08;;;;;;;19.98;7.38;;;-1.80;99.90;;;;;;6295250;28;20059;-80
2024/01/11 03:05:10;;;;;;;21.08;7.32;;;-1.80;99.90;;;;;;6306223;28;20531;-79
2024/01/11 03:08:12;;;;;;;23.70;8.48;;;-1.70;99.90;;;;;;6319054;28;20076;-80
2024/01/11 03:11:13;;;;;;;23.05;8.55;;;-1.60;99.90;;;;;;6294233;28;20131;-79
2024/01/11 03:14:15;;;;;;;18.05;7.25;;;-1.50;99.90;;;;;;6272216;28;20075;-79
2024/01/11 03:17:17;;;;;;;27.50;8.05;;;-1.50;99.90;;;;;;6278019;28;20495;-79
2024/01/11 03:20:21;;;;;;;24.75;7.57;;;-1.40;99.90;;;;;;6297062;28;20092;-80
2024/01/11 03:23:23;;;;;;;26.85;8.93;;;-1.30;99.90;;;;;;6294258;28;20048;-79
2024/01/11 03:26:25;;;;;;;28.33;8.73;;;-1.30;99.90;;;;;;6294609;28;20609;-79
2024/01/11 03:29:26;;;;;;;23.83;8.88;;;-1.30;99.90;;;;;;6288774;28;20049;-79
2024/01/11 03:32:28;;;;;;;26.50;9.60;;;-1.20;99.90;;;;;;6293179;28;20450;-79
2024/01/11 03:35:30;;;;;;;22.77;8.32;;;-1.20;99.90;;;;;;6294786;28;20049;-79
2024/01/11 03:38:31;;;;;;;23.45;8.40;;;-1.20;99.90;;;;;;6294434;28;20492;-79
2024/01/11 03:41:33;;;;;;;27.85;8.75;;;-1.20;99.90;;;;;;6292942;28;20139;-79
2024/01/11 03:44:35;;;;;;;26.17;9.00;;;-1.20;99.90;;;;;;6298981;28;20066;-79
2024/01/11 03:47:37;;;;;;;25.77;8.70;;;-1.20;99.90;;;;;;6291390;28;20056;-79
2024/01/11 03:50:39;;;;;;;19.98;7.63;;;-1.30;99.90;;;;;;6297372;28;20063;-79
2024/01/11 03:53:40;;;;;;;25.40;9.02;;;-1.40;99.90;;;;;;6296709;28;20577;-79
2024/01/11 03:56:43;;;;;;;28.38;8.55;;;-1.50;99.90;;;;;;6292553;28;20059;-79
2024/01/11 03:59:44;;;;;;;24.20;8.30;;;-1.50;99.90;;;;;;6293020;28;20076;-79
2024/01/11 04:02:46;;;;;;;24.15;7.80;;;-1.60;99.90;;;;;;6296315;28;20048;-79
2024/01/11 04:05:48;;;;;;;23.27;8.18;;;-1.60;99.90;;;;;;6292494;28;20087;-79
2024/01/11 04:08:50;;;;;;;29.83;9.80;;;-1.60;99.90;;;;;;6295015;28;20129;-79
2024/01/11 04:11:51;;;;;;;27.70;9.15;;;-1.60;99.90;;;;;;6295116;28;20053;-79
2024/01/11 04:14:53;;;;;;;24.52;9.27;;;-1.60;99.90;;;;;;6297347;28;20040;-80
2024/01/11 04:17:55;;;;;;;24.25;9.25;;;-1.60;99.90;;;;;;6292425;28;20063;-80
2024/01/11 04:20:56;;;;;;;28.30;10.02;;;-1.60;99.90;;;;;;6293312;28;20045;-79
2024/01/11 04:23:58;;;;;;;26.90;9.60;;;-1.60;99.90;;;;;;6294937;28;20497;-79
2024/01/11 04:26:59;;;;;;;25.58;8.90;;;-1.60;99.90;;;;;;6295916;28;20416;-79
2024/01/11 04:30:01;;;;;;;30.10;9.35;;;-1.60;99.90;;;;;;6287169;28;20063;-79
2024/01/11 04:33:03;;;;;;;26.05;9.00;;;-1.50;99.90;;;;;;6293296;28;20052;-78
2024/01/11 04:36:05;;;;;;;26.02;9.30;;;-1.50;99.90;;;;;;6293946;28;20084;-79
2024/01/11 04:39:07;;;;;;;23.38;9.00;;;-1.60;99.90;;;;;;6294880;28;20049;-79
2024/01/11 04:42:09;;;;;;;27.05;9.75;;;-1.70;99.90;;;;;;6296421;28;20051;-79
2024/01/11 04:45:10;;;;;;;23.75;8.82;;;-1.60;99.90;;;;;;6273496;28;20071;-79
2024/01/11 04:48:12;;;;;;;24.90;8.93;;;-1.60;99.90;;;;;;6268073;28;20076;-79
2024/01/11 04:51:14;;;;;;;30.40;9.13;;;-1.70;99.90;;;;;;6280476;28;20055;-79
2024/01/11 04:54:15;;;;;;;30.25;10.40;;;-1.70;99.90;;;;;;6275237;28;20040;-79
2024/01/11 04:57:17;;;;;;;25.77;9.45;;;-1.80;99.90;;;;;;6294320;28;20510;-79
2024/01/11 05:00:18;;;;;;;26.65;8.75;;;-1.70;99.90;;;;;;6288978;28;20086;-79
2024/01/11 05:03:20;;;;;;;29.30;9.60;;;-1.80;99.90;;;;;;6292885;28;20056;-79
2024/01/11 05:06:22;;;;;;;26.95;9.75;;;-1.80;99.90;;;;;;6292202;28;20071;-79
2024/01/11 05:09:24;;;;;;;27.27;9.57;;;-1.70;99.90;;;;;;6279628;28;20057;-79
2024/01/11 05:12:25;;;;;;;32.60;10.05;;;-1.70;99.90;;;;;;6279650;28;20052;-79
2024/01/11 05:15:27;;;;;;;29.85;10.18;;;-1.80;99.90;;;;;;6293390;28;20044;-79
2024/01/11 05:18:28;;;;;;;25.55;10.20;;;-1.80;99.90;;;;;;6300059;28;20488;-79
2024/01/11 05:21:35;;;;;;;30.40;10.23;;;-1.80;99.90;;;;;;6295972;28;20063;-80
2024/01/11 05:24:37;;;;;;;25.17;10.30;;;-1.90;99.90;;;;;;6297701;28;20056;-80
2024/01/11 05:27:38;;;;;;;29.10;9.57;;;-1.90;99.90;;;;;;6297684;28;20585;-79
2024/01/11 05:30:40;;;;;;;25.80;9.13;;;-1.90;99.90;;;;;;6295870;28;20052;-79
2024/01/11 05:33:42;;;;;;;28.65;9.82;;;-2.00;99.90;;;;;;6299930;28;20059;-79
2024/01/11 05:36:44;;;;;;;26.05;10.00;;;-2.00;99.90;;;;;;6278164;28;20511;-78
2024/01/11 05:39:45;;;;;;;26.00;9.82;;;-2.00;99.90;;;;;;6278104;28;20076;-79
2024/01/11 05:42:47;;;;;;;31.10;10.40;;;-2.00;99.90;;;;;;6296570;28;20728;-79
2024/01/11 05:45:49;;;;;;;31.25;10.43;;;-2.00;99.90;;;;;;6297361;28;20508;-79
2024/01/11 05:48:50;;;;;;;26.50;10.52;;;-2.00;99.90;;;;;;6297848;28;20045;-79
2024/01/11 05:51:52;;;;;;;35.33;11.55;;;-2.00;99.90;;;;;;6299070;28;20052;-79
2024/01/11 05:54:54;;;;;;;29.98;10.05;;;-2.00;99.90;;;;;;6277784;28;20056;-78
2024/01/11 05:57:55;;;;;;;26.55;9.57;;;-2.00;99.90;;;;;;6296958;28;20625;-79
2024/01/11 06:00:57;;;;;;;26.40;10.55;;;-2.10;99.90;;;;;;6292883;28;20403;-79
2024/01/11 06:03:59;;;;;;;34.58;11.23;;;-2.10;99.90;;;;;;6295125;28;20060;-79
2024/01/11 06:07:00;;;;;;;32.90;11.20;;;-2.10;99.90;;;;;;6296264;28;20535;-78
2024/01/11 06:10:02;;;;;;;33.83;10.63;;;-2.10;99.90;;;;;;6297884;28;20056;-79
2024/01/11 06:13:04;;;;;;;29.30;10.80;;;-2.10;99.90;;;;;;6299896;28;20079;-79
2024/01/11 06:16:06;;;;;;;31.13;10.88;;;-2.00;99.90;;;;;;6285584;28;20052;-78
2024/01/11 06:19:09;;;;;;;35.58;12.07;;;-2.00;99.90;;;;;;6290700;28;20048;-79
2024/01/11 06:22:11;;;;;;;34.83;11.65;;;-1.90;99.90;;;;;;6298213;28;20056;-79
2024/01/11 06:25:17;;;;;;;33.53;11.95;;;-1.90;99.90;;;;;;6291308;28;20135;-79
2024/01/11 06:28:19;;;;;;;31.35;11.02;;;-1.80;99.90;;;;;;6297905;28;20089;-79
2024/01/11 06:31:21;;;;;;;36.13;11.70;;;-1.80;99.90;;;;;;6276570;28;20428;-78
2024/01/11 06:34:22;;;;;;;35.58;11.88;;;-1.80;99.90;;;;;;6295564;28;20051;-79
2024/01/11 06:37:24;;;;;;;33.35;11.52;;;-1.70;99.90;;;;;;6299009;28;20060;-78
2024/01/11 06:40:26;;;;;;;32.65;11.57;;;-1.60;99.90;;;;;;6294683;28;20060;-79
2024/01/11 06:43:27;;;;;;;35.05;10.93;;;-1.40;99.90;;;;;;6275478;28;20076;-79
2024/01/11 06:46:29;;;;;;;35.42;12.05;;;-1.40;99.90;;;;;;6292565;28;20063;-79
2024/01/11 06:49:30;;;;;;;36.28;11.75;;;-1.40;99.90;;;;;;6297672;28;20044;-79
2024/01/11 06:52:32;;;;;;;33.10;11.25;;;-1.30;99.90;;;;;;6296570;28;20048;-79
2024/01/11 06:55:36;;;;;;;34.55;11.30;;;-1.40;99.90;;;;;;6297620;28;20063;-78
2024/01/11 06:58:37;;;;;;;38.90;11.68;;;-1.20;99.90;;;;;;6290807;28;20056;-79
2024/01/11 07:01:39;;;;;;;28.85;10.90;;;-1.20;99.90;;;;;;6293991;28;20484;-78
2024/01/11 07:04:41;;;;;;;39.95;11.20;;;-1.20;99.90;;;;;;6296611;28;20420;-79
2024/01/11 07:07:43;;;;;;;29.70;9.82;;;-1.20;99.90;;;;;;6293267;28;20044;-79
2024/01/11 07:10:45;;;;;;;32.90;10.50;;;-1.30;99.90;;;;;;6295047;28;20052;-79
2024/01/11 07:13:48;;;;;;;28.90;11.02;;;-1.30;99.90;;;;;;6296699;28;20049;-79
2024/01/11 07:16:50;;;;;;;30.13;10.63;;;-1.30;99.90;;;;;;6293409;28;20051;-79
2024/01/11 07:19:51;;;;;;;31.13;10.63;;;-1.40;99.90;;;;;;6297657;28;20055;-79
2024/01/11 07:22:53;;;;;;;29.02;10.65;;;-1.40;99.90;;;;;;6294422;28;20048;-79
2024/01/11 07:25:55;;;;;;;31.83;9.82;;;-1.50;99.90;;;;;;6274943;28;20071;-79
2024/01/11 07:28:56;;;;;;;34.53;10.38;;;-1.50;99.90;;;;;;6277899;28;20098;-79
2024/01/11 07:31:58;;;;;;;32.22;10.45;;;-1.50;99.90;;;;;;6292947;28;20422;-79
2024/01/11 07:35:00;;;;;;;32.33;10.88;;;-1.50;99.90;;;;;;6295434;28;20040;-78
2024/01/11 07:38:01;;;;;;;32.92;9.77;;;-1.50;99.90;;;;;;6278588;28;20067;-78
2024/01/11 07:41:04;;;;;;;33.72;10.65;;;-1.40;99.90;;;;;;6293743;28;20450;-78
2024/01/11 07:44:06;;;;;;;31.45;10.63;;;-1.50;99.90;;;;;;6287594;28;20214;-78
2024/01/11 07:47:07;;;;;;;33.55;9.77;;;-1.40;99.90;;;;;;6295334;28;20048;-78
2024/01/11 07:50:12;;;;;;;29.20;10.57;;;-1.40;99.90;;;;;;6292764;28;20131;-79
2024/01/11 07:53:14;;;;;;;29.90;10.38;;;-1.30;99.90;;;;;;6291958;28;20488;-79
2024/01/11 07:56:17;;;;;;;25.40;8.65;;;-1.30;99.90;;;;;;6293721;28;20056;-78
2024/01/11 07:59:18;;;;;;;28.20;9.82;;;-1.30;99.90;;;;;;6294905;28;20040;-79
2024/01/11 08:02:20;;;;;;;28.27;9.35;;;-1.30;99.90;;;;;;6295098;28;20160;-78
2024/01/11 08:05:21;;;;;;;26.92;9.65;;;-1.30;99.90;;;;;;6291961;28;20063;-79
2024/01/11 08:08:24;;;;;;;27.73;8.40;;;-1.30;99.90;;;;;;6293419;28;20040;-79
2024/01/11 08:11:25;;;;;;;21.98;7.38;;;-1.30;99.90;;;;;;6293599;28;20061;-79
2024/01/11 08:14:29;;;;;;;24.00;7.90;;;-1.20;99.90;;;;;;6290347;28;20852;-80
2024/01/11 08:17:31;;;;;;;20.05;7.55;;;-1.10;99.90;;;;;;6292387;28;20044;-79
2024/01/11 08:20:32;;;;;;;16.58;6.45;;;-1.00;99.90;;;;;;6292522;28;20598;-80
2024/01/11 08:23:34;;;;;;;20.50;6.10;;;-1.00;99.90;;;;;;6316951;28;20110;-79
2024/01/11 08:26:36;;;;;;;17.02;5.63;;;-0.90;99.90;;;;;;6290057;28;20084;-78
2024/01/11 08:29:37;;;;;;;18.17;5.85;;;-0.90;99.90;;;;;;6285668;28;20420;-78
2024/01/11 08:32:41;;;;;;;14.93;4.90;;;-0.80;99.90;;;;;;6294104;28;20273;-79
2024/01/11 08:35:43;;;;;;;16.55;5.68;;;-0.80;99.90;;;;;;6294018;28;20139;-80
2024/01/11 08:38:45;;;;;;;16.02;5.30;;;-0.80;99.90;;;;;;6295986;28;20049;-82
2024/01/11 08:41:47;;;;;;;13.77;4.80;;;-0.80;99.90;;;;;;6278248;28;20533;-79
2024/01/11 08:44:49;;;;;;;20.95;5.43;;;-0.70;99.90;;;;;;6278124;28;20056;-80
2024/01/11 08:47:51;;;;;;;16.58;4.10;;;-0.60;99.90;;;;;;6299078;28;20081;-79
2024/01/11 08:50:53;;;;;;;13.27;4.30;;;-0.50;99.90;;;;;;6307651;28;20107;-80
2024/01/11 08:53:58;;;;;;;12.30;4.65;;;-0.50;99.90;;;;;;6301467;28;20052;-78
2024/01/11 08:56:59;;;;;;;17.00;4.03;;;-0.50;99.90;;;;;;6271514;28;20084;-79
2024/01/11 09:00:01;;;;;;;11.63;4.05;;;-0.40;99.90;;;;;;6317540;28;20048;-79
2024/01/11 09:03:03;;;;;;;14.02;4.45;;;-0.30;99.90;;;;;;6280028;28;20048;-78
2024/01/11 09:06:05;;;;;;;17.77;4.35;;;-0.20;99.90;;;;;;6321964;28;20563;-79
2024/01/11 09:09:10;;;;;;;17.85;4.05;;;-0.20;99.90;;;;;;6297604;28;20049;-79
2024/01/11 09:12:11;;;;;;;17.42;5.18;;;-0.10;99.90;;;;;;6322003;28;20534;-79
2024/01/11 09:15:13;;;;;;;13.63;4.18;;;0.00;99.90;;;;;;6293301;28;20046;-79
2024/01/11 09:18:15;;;;;;;18.45;4.68;;;0.00;99.90;;;;;;6321724;28;20063;-79
2024/01/11 09:21:17;;;;;;;16.65;4.40;;;0.20;99.90;;;;;;6297350;28;20049;-79
2024/01/11 09:24:19;;;;;;;17.83;4.43;;;0.20;99.90;;;;;;6321545;28;20495;-79
2024/01/11 09:27:21;;;;;;;14.95;4.47;;;0.30;99.90;;;;;;6294803;28;20048;-84
2024/01/11 09:30:22;;;;;;;12.48;3.97;;;0.50;99.90;;;;;;6316996;28;20389;-80
2024/01/11 09:33:24;;;;;;;19.63;4.80;;;0.60;99.90;;;;;;6296970;28;20048;-82
2024/01/11 09:36:26;;;;;;;16.63;5.07;;;0.70;99.90;;;;;;6305936;28;20048;-82
2024/01/11 09:39:28;;;;;;;17.17;4.70;;;0.80;99.90;;;;;;6298154;28;20063;-82
2024/01/11 09:42:29;;;;;;;12.98;4.78;;;1.00;99.90;;;;;;6295023;28;20048;-85
2024/01/11 09:45:31;;;;;;;14.82;4.80;;;1.10;99.90;;;;;;6278392;28;20109;-84
2024/01/11 09:48:32;;;;;;;12.48;4.70;;;1.40;99.90;;;;;;6307790;28;20518;-82
2024/01/11 09:51:34;;;;;;;20.98;4.60;;;2.40;99.90;;;;;;6295958;28;20546;-84
2024/01/11 09:54:36;;;;;;;14.65;4.20;;;3.30;99.90;;;;;;6295823;28;20055;-82
2024/01/11 09:57:38;;;;;;;11.93;3.85;;;4.00;99.90;;;;;;6294895;28;20067;-82
2024/01/11 10:00:40;;;;;;;8.80;3.15;;;4.70;99.90;;;;;;6292621;28;20044;-81
2024/01/11 10:03:43;;;;;;;11.20;2.97;;;5.30;98.90;;;;;;6295367;28;20052;-77
2024/01/11 10:06:44;;;;;;;14.85;3.72;;;6.00;96.50;;;;;;6295895;28;20052;-78
2024/01/11 10:09:46;;;;;;;13.98;3.05;;;6.20;86.40;;;;;;6295104;28;20059;-79
2024/01/11 10:12:48;;;;;;;9.23;2.90;;;6.50;73.80;;;;;;6273766;28;20059;-78
2024/01/11 10:15:50;;;;;;;7.00;2.50;;;6.90;72.00;;;;;;6289365;28;20048;-81
2024/01/11 10:18:51;;;;;;;10.15;2.85;;;7.00;52.30;;;;;;6291064;28;20063;-79
2024/01/11 10:21:53;;;;;;;9.32;2.85;;;7.40;38.20;;;;;;6299357;28;20048;-79
2024/01/11 10:24:55;;;;;;;7.55;2.53;;;7.70;41.70;;;;;;6298725;28;20446;-79
2024/01/11 10:27:57;;;;;;;10.32;3.15;;;8.20;46.30;;;;;;6294940;28;20051;-81
2024/01/11 10:30:59;;;;;;;9.52;3.47;;;8.20;9.70;;;;;;6271289;28;21255;-80
2024/01/11 10:34:01;;;;;;;7.78;2.85;;;8.30;25.90;;;;;;6293162;28;20049;-78
2024/01/11 10:37:03;;;;;;;8.27;2.95;;;8.50;16.10;;;;;;6300293;28;20075;-79
2024/01/11 10:40:13;;;;;;;6.63;2.70;;;9.00;1.00;;;;;;6296521;28;20048;-84
2024/01/11 10:43:15;;;;;;;6.65;2.50;;;9.30;1.00;;;;;;6297896;28;20058;-80
2024/01/11 10:46:17;;;;;;;7.72;3.20;;;9.20;1.00;;;;;;6272143;28;20061;-84
2024/01/11 10:49:18;;;;;;;8.07;2.85;;;9.30;1.00;;;;;;6298202;28;20099;-80
2024/01/11 10:52:21;;;;;;;9.27;2.55;;;9.90;1.00;;;;;;6316787;28;20055;-80
2024/01/11 10:55:23;;;;;;;6.75;2.60;;;10.20;1.00;;;;;;6301370;28;20134;-82
2024/01/11 10:58:25;;;;;;;7.60;2.58;;;10.20;1.00;;;;;;6274103;28;20127;-80
2024/01/11 11:01:27;;;;;;;7.75;2.90;;;9.60;1.00;;;;;;6293728;28;20056;-83
2024/01/11 11:04:28;;;;;;;5.78;2.20;;;9.70;1.00;;;;;;6294537;28;20075;-81
2024/01/11 11:07:30;;;;;;;8.65;2.63;;;8.70;1.00;;;;;;6287855;28;20060;-83
2024/01/11 11:10:32;;;;;;;8.80;2.85;;;8.40;1.00;;;;;;6295653;28;20550;-83
2024/01/11 11:13:36;;;;;;;7.15;2.70;;;8.20;1.00;;;;;;6294602;28;20051;-84
2024/01/11 11:16:38;;;;;;;9.95;3.03;;;7.80;1.00;;;;;;6317526;28;20055;-83
2024/01/11 11:19:40;;;;;;;10.30;3.33;;;7.50;3.40;;;;;;6270808;28;20091;-82
2024/01/11 11:22:42;;;;;;;8.13;3.15;;;7.20;1.00;;;;;;6287449;28;20139;-84
2024/01/11 11:25:44;;;;;;;8.55;2.85;;;7.10;8.00;;;;;;6290460;28;20060;-81
2024/01/11 11:28:46;;;;;;;6.68;3.20;;;7.00;7.00;;;;;;6273653;28;20403;-81
2024/01/11 11:31:47;;;;;;;6.05;2.97;;;7.00;9.40;;;;;;6293638;28;20133;-79
2024/01/11 11:34:52;;;;;;;7.35;3.00;;;6.90;7.90;;;;;;6318435;28;20079;-80
2024/01/11 11:37:54;;;;;;;9.13;2.85;;;6.70;10.30;;;;;;6292868;28;20059;-79
2024/01/11 11:40:55;;;;;;;9.98;2.75;;;6.60;17.10;;;;;;6302988;28;20055;-83
2024/01/11 11:43:57;;;;;;;10.75;2.85;;;6.60;18.60;;;;;;6291312;28;20064;-80
2024/01/11 11:46:58;;;;;;;10.05;3.00;;;6.80;19.30;;;;;;6295889;28;20052;-87
2024/01/11 11:50:00;;;;;;;7.03;2.70;;;7.00;8.40;;;;;;6271918;28;20048;-82
2024/01/11 11:53:02;;;;;;;9.05;2.63;;;6.90;10.60;;;;;;6293849;28;20049;-80
2024/01/11 11:56:04;;;;;;;6.43;2.88;;;6.70;11.20;;;;;;6277582;28;20048;-83
2024/01/11 11:59:06;;;;;;;11.73;3.28;;;6.60;21.70;;;;;;6272316;28;20044;-84
2024/01/11 12:02:08;;;;;;;10.25;3.10;;;6.60;21.70;;;;;;6273733;28;20056;-82
2024/01/11 12:05:10;;;;;;;8.57;2.75;;;6.60;17.80;;;;;;6291796;28;20056;-82
2024/01/11 12:08:12;;;;;;;7.90;3.20;;;6.40;24.40;;;;;;6274551;28;20048;-85
2024/01/11 12:11:13;;;;;;;10.02;3.10;;;6.20;31.10;;;;;;6302844;28;20393;-83
2024/01/11 12:14:15;;;;;;;7.57;3.00;;;6.10;33.80;;;;;;6277971;28;20072;-81
2024/01/11 12:17:17;;;;;;;8.15;2.83;;;6.10;37.50;;;;;;6294987;28;20044;-81
2024/01/11 12:20:21;;;;;;;10.60;2.70;;;6.10;37.40;;;;;;6302579;28;20539;-81
2024/01/11 12:23:22;;;;;;;7.22;2.20;;;5.90;35.70;;;;;;6285167;28;20609;-86
2024/01/11 12:26:24;;;;;;;9.32;2.45;;;5.80;43.10;;;;;;6269217;28;20048;-81
2024/01/11 12:29:26;;;;;;;8.70;2.42;;;5.60;49.20;;;;;;6271278;28;20055;-82
2024/01/11 12:32:30;;;;;;;8.18;2.30;;;5.70;52.00;;;;;;6273806;28;20491;-84
2024/01/11 12:35:32;;;;;;;7.95;2.08;;;5.50;51.90;;;;;;6278683;28;20443;-80
2024/01/11 12:38:33;;;;;;;6.57;2.38;;;5.30;49.10;;;;;;6295428;28;20052;-81
2024/01/11 12:41:35;;;;;;;5.45;2.00;;;5.10;49.50;;;;;;6272906;28;20102;-82
2024/01/11 12:44:39;;;;;;;7.45;2.17;;;5.00;56.50;;;;;;6280216;28;20060;-84
2024/01/11 12:47:41;;;;;;;6.22;2.08;;;5.00;57.80;;;;;;6294013;28;20052;-83
2024/01/11 12:50:43;;;;;;;4.10;1.67;;;4.90;56.80;;;;;;6278022;28;20044;-80
2024/01/11 12:53:45;;;;;;;6.00;2.53;;;4.80;59.70;;;;;;6275573;28;20411;-82
2024/01/11 12:56:46;;;;;;;8.40;1.90;;;4.80;59.30;;;;;;6290278;28;20059;-88
2024/01/11 12:59:48;;;;;;;7.90;2.40;;;4.80;59.20;;;;;;6291800;28;20113;-83
2024/01/11 13:02:51;;;;;;;7.70;2.30;;;4.80;55.60;;;;;;6282062;28;20116;-80
2024/01/11 13:05:52;;;;;;;6.18;2.40;;;4.90;58.90;;;;;;6288533;28;20567;-81
2024/01/11 13:08:54;;;;;;;7.10;2.22;;;5.00;51.20;;;;;;6272863;28;20556;-82
2024/01/11 13:11:56;;;;;;;7.47;2.17;;;5.10;39.60;;;;;;6282923;28;20056;-81
2024/01/11 13:14:57;;;;;;;4.80;2.15;;;5.20;38.50;;;;;;6291398;28;20582;-81
2024/01/11 13:17:59;;;;;;;6.25;2.10;;;5.10;39.10;;;;;;6272738;28;20091;-81
2024/01/11 13:21:02;;;;;;;7.40;2.05;;;5.10;45.40;;;;;;6296555;28;20052;-81
2024/01/11 13:24:04;;;;;;;4.82;1.77;;;5.00;42.30;;;;;;6299068;28;20079;-81
2024/01/11 13:27:06;;;;;;;7.28;1.88;;;5.00;46.80;;;;;;6273142;28;20503;-81
2024/01/11 13:30:08;;;;;;;3.83;1.80;;;5.00;52.00;;;;;;6298773;28;20052;-81
2024/01/11 13:33:10;;;;;;;7.63;2.20;;;4.80;52.60;;;;;;6296932;28;20083;-80
2024/01/11 13:36:12;;;;;;;8.13;1.98;;;4.60;59.10;;;;;;6302272;28;20071;-81
2024/01/11 13:39:14;;;;;;;5.35;2.03;;;4.60;63.20;;;;;;6278350;28;20053;-81
2024/01/11 13:42:16;;;;;;;6.88;1.92;;;4.60;64.50;;;;;;6275360;28;20060;-83
2024/01/11 13:45:17;;;;;;;5.47;2.00;;;4.60;67.80;;;;;;6279817;28;20055;-82
2024/01/11 13:48:25;;;;;;;8.60;1.90;;;4.50;69.10;;;;;;6297024;28;20057;-83
2024/01/11 13:51:27;;;;;;;5.95;1.83;;;4.40;69.00;;;;;;6255370;28;20136;-81
2024/01/11 13:54:28;;;;;;;5.82;2.30;;;4.30;70.70;;;;;;6296329;28;20571;-82
2024/01/11 13:57:30;;;;;;;5.68;2.13;;;4.30;74.20;;;;;;6296631;28;20121;-82
2024/01/11 14:00:32;;;;;;;12.75;2.28;;;4.30;76.90;;;;;;6291888;28;20056;-81
2024/01/11 14:03:34;;;;;;;4.15;2.20;;;4.30;76.60;;;;;;6315300;28;20047;-83
2024/01/11 14:06:35;;;;;;;6.75;2.25;;;4.30;76.30;;;;;;6277070;28;20115;-81
2024/01/11 14:09:37;;;;;;;7.97;2.08;;;4.30;78.40;;;;;;6276585;28;20056;-82
2024/01/11 14:12:39;;;;;;;6.43;2.20;;;4.30;77.80;;;;;;6294683;28;20048;-83
2024/01/11 14:15:41;;;;;;;7.40;2.50;;;4.30;78.90;;;;;;6274825;28;20056;-83
2024/01/11 14:18:42;;;;;;;5.50;2.30;;;4.30;79.60;;;;;;6295397;28;20052;-82
2024/01/11 14:21:44;;;;;;;4.72;2.20;;;4.20;81.90;;;;;;6276680;28;20197;-83
2024/01/11 14:24:46;;;;;;;9.00;2.00;;;4.20;83.70;;;;;;6278702;28;20610;-84
2024/01/11 14:27:48;;;;;;;5.78;2.42;;;4.30;83.80;;;;;;6280429;28;20476;-83
2024/01/11 14:30:50;;;;;;;5.35;2.17;;;4.30;82.30;;;;;;6291262;28;20079;-83
2024/01/11 14:33:51;;;;;;;6.85;2.17;;;4.30;83.00;;;;;;6274382;28;20561;-83
2024/01/11 14:36:53;;;;;;;4.50;1.92;;;4.30;80.80;;;;;;6275829;28;20060;-82
2024/01/11 14:39:55;;;;;;;7.43;2.20;;;4.40;82.00;;;;;;6280035;28;20049;-82
2024/01/11 14:42:56;;;;;;;4.72;1.90;;;4.30;82.30;;;;;;6277124;28;20048;-82
2024/01/11 14:45:58;;;;;;;8.02;2.22;;;4.40;84.60;;;;;;6277059;28;20057;-82
2024/01/11 14:49:00;;;;;;;9.60;2.00;;;4.40;84.60;;;;;;6294314;28;20397;-82
2024/01/11 14:52:05;;;;;;;7.70;2.33;;;4.40;86.50;;;;;;6278748;28;20060;-82
2024/01/11 14:55:06;;;;;;;5.95;1.92;;;4.50;83.30;;;;;;6296353;28;20080;-83
2024/01/11 14:58:09;;;;;;;9.43;1.90;;;4.50;83.10;;;;;;6295652;28;20068;-81
2024/01/11 15:01:10;;;;;;;5.60;1.83;;;4.50;84.70;;;;;;6274412;28;20056;-80
2024/01/11 15:04:12;;;;;;;9.05;2.22;;;4.40;85.50;;;;;;6293075;28;20049;-80
2024/01/11 15:07:14;;;;;;;4.78;1.90;;;4.50;86.60;;;;;;6278625;28;20143;-80
2024/01/11 15:10:16;;;;;;;7.72;2.08;;;4.50;87.10;;;;;;6292909;28;20059;-82
2024/01/11 15:13:18;;;;;;;5.35;1.98;;;4.50;87.50;;;;;;6291329;28;20045;-78
2024/01/11 15:16:20;;;;;;;5.65;2.00;;;4.50;86.90;;;;;;6297162;28;20056;-84
2024/01/11 15:19:21;;;;;;;6.43;2.20;;;4.60;86.10;;;;;;6276993;28;20053;-83
2024/01/11 15:22:23;;;;;;;3.97;2.00;;;4.60;85.10;;;;;;6278934;28;20044;-82
2024/01/11 15:25:26;;;;;;;5.63;2.05;;;4.60;87.10;;;;;;6294678;28;20415;-82
2024/01/11 15:28:28;;;;;;;5.22;1.85;;;4.60;85.20;;;;;;6289808;28;20064;-82
2024/01/11 15:31:29;;;;;;;8.43;2.08;;;4.60;85.90;;;;;;6292322;28;20142;-82
2024/01/11 15:34:31;;;;;;;6.43;2.00;;;4.70;86.10;;;;;;6275852;28;20058;-82
2024/01/11 15:37:33;;;;;;;6.38;2.17;;;4.60;87.80;;;;;;6293274;28;20056;-82
2024/01/11 15:40:35;;;;;;;13.27;2.22;;;4.60;88.10;;;;;;6275066;28;20057;-80